Site contains unofficial IBTrACS data. Visit the IBTrACS Website to access archived data.

1857 Hurricane NOT_NAMED (1857313N17300)


IBTrACS version v04r00. Visit IBTrACS website for data access.
Please direct all questions to the IBTrACS Q and A forum

Storm track - Intensity - Wind Radii - Intensity Data - Source Data - All data

Summary Information

Storm ID 1857313N17300
Start Nov 8 12Z
Landfall Nov 13 12Z
Max Intensity 80 kt (Nov 10 12Z)
End Nov 15 12Z
ATCF IDs
Track status Best track data.

Storm track plot

Map of storm track

Intensity plots

Map of storm track

Radial wind information

No radial wind information for this storm


Position and Intensity Table

BASIN ISO_TIME_________ NATURE LAT LON MLC WIND
degrees north degrees east kts
NA 1857-11-08 12:00:00 TS 17.30 -60.50 35
NA 15:00:00 TS 17.90 -60.71 37
NA 18:00:00 TS 18.50 -60.90 40
NA 21:00:00 TS 19.10 -61.06 42
NA 1857-11-09 00:00:00 TS 19.70 -61.20 45
NA 03:00:00 TS 20.31 -61.35 50
NA 06:00:00 TS 20.90 -61.50 55
NA 09:00:00 TS 21.49 -61.61 55
NA 12:00:00 TS 22.00 -61.80 55
NA 15:00:00 TS 22.38 -62.16 57
NA 18:00:00 TS 22.70 -62.60 60
NA 21:00:00 TS 23.05 -63.05 60
NA 1857-11-10 00:00:00 TS 23.40 -63.50 60
NA 03:00:00 TS 23.75 -63.90 67
NA 06:00:00 TS 24.10 -64.30 75
NA 09:00:00 TS 24.49 -64.70 77
NA 12:00:00 TS 24.80 -65.20 80
NA 15:00:00 TS 24.90 -65.87 80
NA 18:00:00 TS 24.90 -66.60 80
NA 21:00:00 TS 24.95 -67.26 80
NA 1857-11-11 00:00:00 TS 25.00 -67.90 80
NA 03:00:00 TS 25.05 -68.55 80
NA 06:00:00 TS 25.10 -69.20 80
NA 09:00:00 TS 25.15 -69.84 80
NA 12:00:00 TS 25.20 -70.50 80
NA 15:00:00 TS 25.25 -71.20 80
NA 18:00:00 TS 25.30 -71.90 80
NA 21:00:00 TS 25.35 -72.55 77
NA 1857-11-12 00:00:00 TS 25.40 -73.20 75
NA 03:00:00 TS 25.46 -73.89 72
NA 06:00:00 TS 25.50 -74.60 70
NA 09:00:00 TS 25.52 -75.37 67
NA 12:00:00 TS 25.50 -76.00 65
NA 15:00:00 TS 25.41 -76.32 62
NA 18:00:00 TS 25.30 -76.50 60
NA 21:00:00 TS 25.20 -76.75 57
NA 1857-11-13 00:00:00 TS 25.10 -77.00 55
NA 03:00:00 TS 24.99 -77.25 52
NA 06:00:00 TS 24.90 -77.50 50
NA 09:00:00 TS 24.85 -77.74 47
NA 12:00:00 TS 24.80 -78.00 45
NA 15:00:00 TS 24.71 -78.30 42
NA 18:00:00 TS 24.60 -78.60 40
NA 21:00:00 TS 24.50 -78.86 37
NA 1857-11-14 00:00:00 TS 24.40 -79.10 35
NA 03:00:00 TS 24.30 -79.34 35
NA 06:00:00 TS 24.20 -79.60 35
NA 09:00:00 TS 24.09 -79.90 32
NA 12:00:00 ET 24.00 -80.20 30
NA 15:00:00 ET 23.94 -80.46 30
NA 18:00:00 ET 23.90 -80.70 30
NA 21:00:00 ET 23.85 -80.90 30
NA 1857-11-15 00:00:00 ET 23.80 -81.10 30
NA 03:00:00 ET 23.74 -81.35 30
NA 06:00:00 ET 23.70 -81.60 30
NA 09:00:00 ET 23.69 -81.81 30
NA 12:00:00 ET 23.70 -82.00 30

Source Information

Agency Information
USA
TOKYO
CMA
HKO
NEWDELHI
REUNION
BOM
NADI
WELLINGTON
DS824
TD9636
TD9635
NEUMANN
MLC

All available IBTrACS Data

SEASON BASIN SUBBASIN ISO_TIME_________ NATURE LAT LON DIST2LAND LANDFALL IFLAG USA SSHS MLC LAT MLC LON MLC CLASS MLC WIND STORM SPEED STORM DIR
Year degrees north degrees east km km 1 degrees north degrees east kts kts degrees
1857 NA NA 1857-11-08 12:00:00 TS 17.30 -60.50 549 519 _____________O -1 17.30 -60.50 TS 35 13 341
1857 NA NA 15:00:00 TS 17.90 -60.71 519 495 _____________P -1 17.90 -60.71 TS 37 13 342
1857 NA NA 18:00:00 TS 18.50 -60.90 495 486 _____________O -1 18.50 -60.90 TS 40 13 345
1857 NA NA 21:00:00 TS 19.10 -61.06 480 478 _____________P -1 19.10 -61.06 TS 42 12 347
1857 NA NA 1857-11-09 00:00:00 TS 19.70 -61.20 484 481 _____________O -1 19.70 -61.20 TS 45 12 347
1857 NA NA 03:00:00 TS 20.31 -61.35 489 489 _____________P -1 20.31 -61.35 TS 50 12 347
1857 NA NA 06:00:00 TS 20.90 -61.50 512 512 _____________O -1 20.90 -61.50 TS 55 12 348
1857 NA NA 09:00:00 TS 21.49 -61.61 543 542 _____________P -1 21.49 -61.61 TS 55 11 346
1857 NA NA 12:00:00 TS 22.00 -61.80 565 565 _____________O -1 22.00 -61.80 TS 55 10 331
1857 NA NA 15:00:00 TS 22.38 -62.16 570 566 _____________P -1 22.38 -62.16 TS 57 10 313
1857 NA NA 18:00:00 TS 22.70 -62.60 573 571 _____________O -1 22.70 -62.60 TS 60 11 309
1857 NA NA 21:00:00 TS 23.05 -63.05 586 576 _____________P -1 23.05 -63.05 TS 60 11 310
1857 NA NA 1857-11-10 00:00:00 TS 23.40 -63.50 600 600 _____________O -1 23.40 -63.50 TS 60 11 312
1857 NA NA 03:00:00 TS 23.75 -63.90 618 618 _____________P -1 23.75 -63.90 TS 67 10 314
1857 NA NA 06:00:00 TS 24.10 -64.30 651 651 _____________O -1 24.10 -64.30 HU 75 10 315
1857 NA NA 09:00:00 TS 24.49 -64.70 688 687 _____________P -1 24.49 -64.70 HU 77 11 311
1857 NA NA 12:00:00 TS 24.80 -65.20 716 715 _____________O -1 24.80 -65.20 HU 80 11 291
1857 NA NA 15:00:00 TS 24.90 -65.87 717 684 _____________P -1 24.90 -65.87 HU 80 13 275
1857 NA NA 18:00:00 TS 24.90 -66.60 684 658 _____________O -1 24.90 -66.60 HU 80 13 272
1857 NA NA 21:00:00 TS 24.95 -67.26 654 641 _____________P -1 24.95 -67.26 HU 80 12 275
1857 NA NA 1857-11-11 00:00:00 TS 25.00 -67.90 641 620 _____________O -1 25.00 -67.90 HU 80 12 275
1857 NA NA 03:00:00 TS 25.05 -68.55 616 583 _____________P -1 25.05 -68.55 HU 80 12 275
1857 NA NA 06:00:00 TS 25.10 -69.20 583 544 _____________O -1 25.10 -69.20 HU 80 12 275
1857 NA NA 09:00:00 TS 25.15 -69.84 544 514 _____________P -1 25.15 -69.84 HU 80 12 275
1857 NA NA 12:00:00 TS 25.20 -70.50 514 483 _____________O -1 25.20 -70.50 HU 80 12 275
1857 NA NA 15:00:00 TS 25.25 -71.20 483 471 _____________P -1 25.25 -71.20 HU 80 13 275
1857 NA NA 18:00:00 TS 25.30 -71.90 471 461 _____________O -1 25.30 -71.90 HU 80 12 275
1857 NA NA 21:00:00 TS 25.35 -72.55 460 460 _____________P -1 25.35 -72.55 HU 77 12 275
1857 NA NA 1857-11-12 00:00:00 TS 25.40 -73.20 464 398 _____________O -1 25.40 -73.20 HU 75 12 275
1857 NA NA 03:00:00 TS 25.46 -73.89 398 331 _____________P -1 25.46 -73.89 HU 72 13 275
1857 NA NA 06:00:00 TS 25.50 -74.60 331 266 _____________O -1 25.50 -74.60 HU 70 13 273
1857 NA NA 09:00:00 TS 25.52 -75.37 257 201 _____________P -1 25.52 -75.37 HU 67 13 270
1857 NA NA 12:00:00 TS 25.50 -76.00 201 170 _____________O -1 25.50 -76.00 HU 65 9 263
1857 NA NA 15:00:00 TS 25.41 -76.32 170 147 _____________P -1 25.41 -76.32 HU 62 5 246
1857 NA NA 18:00:00 TS 25.30 -76.50 147 124 _____________O -1 25.30 -76.50 TS 60 4 241
1857 NA NA 21:00:00 TS 25.20 -76.75 124 92 _____________P -1 25.20 -76.75 TS 57 5 246
1857 NA NA 1857-11-13 00:00:00 TS 25.10 -77.00 92 69 _____________O -1 25.10 -77.00 TS 55 5 245
1857 NA NA 03:00:00 TS 24.99 -77.25 60 37 _____________P -1 24.99 -77.25 TS 52 5 246
1857 NA NA 06:00:00 TS 24.90 -77.50 37 20 _____________O -1 24.90 -77.50 TS 50 5 252
1857 NA NA 09:00:00 TS 24.85 -77.74 15 0 _____________P -1 24.85 -77.74 TS 47 5 258
1857 NA NA 12:00:00 TS 24.80 -78.00 0 0 _____________O -1 24.80 -78.00 TS 45 5 254
1857 NA NA 15:00:00 TS 24.71 -78.30 0 0 _____________P -1 24.71 -78.30 TS 42 6 250
1857 NA NA 18:00:00 TS 24.60 -78.60 10 10 _____________O -1 24.60 -78.60 TS 40 5 248
1857 NA NA 21:00:00 TS 24.50 -78.86 41 41 _____________P -1 24.50 -78.86 TS 37 5 246
1857 NA NA 1857-11-14 00:00:00 TS 24.40 -79.10 64 64 _____________O -1 24.40 -79.10 TS 35 5 246
1857 NA NA 03:00:00 TS 24.30 -79.34 87 87 _____________P -1 24.30 -79.34 TS 35 5 246
1857 NA NA 06:00:00 TS 24.20 -79.60 119 119 _____________O -1 24.20 -79.60 TS 35 5 248
1857 NA NA 09:00:00 TS 24.09 -79.90 122 115 _____________P -1 24.09 -79.90 TS 32 6 250
1857 NA NA 12:00:00 ET 24.00 -80.20 115 100 _____________O -1 24.00 -80.20 EX 30 5 254
1857 NA NA 15:00:00 ET 23.94 -80.46 100 100 _____________P -1 23.94 -80.46 EX 30 5 258
1857 NA NA 18:00:00 ET 23.90 -80.70 100 98 _____________O -1 23.90 -80.70 EX 30 4 257
1857 NA NA 21:00:00 ET 23.85 -80.90 88 80 _____________P -1 23.85 -80.90 EX 30 4 255
1857 NA NA 1857-11-15 00:00:00 ET 23.80 -81.10 80 67 _____________O -1 23.80 -81.10 EX 30 4 255
1857 NA NA 03:00:00 ET 23.74 -81.35 67 67 _____________P -1 23.74 -81.35 EX 30 5 258
1857 NA NA 06:00:00 ET 23.70 -81.60 67 67 _____________O -1 23.70 -81.60 EX 30 4 263
1857 NA NA 09:00:00 ET 23.69 -81.81 67 67 _____________P -1 23.69 -81.81 EX 30 4 270
1857 NA NA 12:00:00 ET 23.70 -82.00 67 _____________O -1 23.70 -82.00 EX 30 3 273